createdAt,value
2019-01-17T00:00:36.764Z,18.29
2019-01-17T00:01:36.717Z,18.3
2019-01-17T00:02:36.790Z,18.27
2019-01-17T00:03:36.710Z,18.26
2019-01-17T00:04:36.719Z,18.28
2019-01-17T00:05:36.870Z,18.28
2019-01-17T00:06:36.989Z,18.26
2019-01-17T00:07:36.800Z,18.25
2019-01-17T00:08:36.888Z,18.26
2019-01-17T00:09:36.637Z,18.25
2019-01-17T00:10:36.739Z,18.26
2019-01-17T00:11:36.707Z,18.25
2019-01-17T00:12:36.679Z,18.24
2019-01-17T00:13:36.674Z,18.22
2019-01-17T00:14:36.947Z,18.22
2019-01-17T00:15:36.765Z,18.23
2019-01-17T00:16:36.880Z,18.24
2019-01-17T00:17:36.621Z,18.22
2019-01-17T00:18:36.670Z,18.21
2019-01-17T00:19:36.585Z,18.22
2019-01-17T00:20:38.689Z,18.22
2019-01-17T00:21:36.845Z,18.2
2019-01-17T00:22:36.735Z,18.2
2019-01-17T00:23:37.757Z,18.2
2019-01-17T00:24:37.029Z,18.2
2019-01-17T00:25:37.006Z,18.2
2019-01-17T00:26:37.685Z,18.21
2019-01-17T00:27:37.037Z,18.17
2019-01-17T00:28:37.009Z,18.19
2019-01-17T00:29:36.682Z,18.18
2019-01-17T00:30:36.823Z,18.18
2019-01-17T00:31:37.014Z,18.17
2019-01-17T00:32:36.756Z,18.18
2019-01-17T00:33:36.986Z,18.19
2019-01-17T00:34:37.197Z,18.18
2019-01-17T00:35:36.732Z,18.17
2019-01-17T00:36:36.933Z,18.14
2019-01-17T00:37:36.930Z,18.17
2019-01-17T00:38:36.760Z,18.17
2019-01-17T00:39:36.813Z,18.14
2019-01-17T00:40:37.180Z,18.13
2019-01-17T00:41:36.988Z,18.14
2019-01-17T00:42:36.740Z,18.14
2019-01-17T00:43:37.535Z,18.14
2019-01-17T00:44:36.951Z,18.13
2019-01-17T00:45:36.965Z,18.11
2019-01-17T00:46:36.870Z,18.12
2019-01-17T00:47:36.740Z,18.12
2019-01-17T00:48:36.700Z,18.11
2019-01-17T00:49:38.468Z,18.12
2019-01-17T00:50:36.888Z,18.12
2019-01-17T00:51:36.834Z,18.12
2019-01-17T00:52:37.031Z,18.12
2019-01-17T00:53:36.498Z,18.12
2019-01-17T00:54:36.605Z,18.12
2019-01-17T00:55:37.448Z,18.11
2019-01-17T00:56:36.655Z,18.1
2019-01-17T00:57:37.078Z,18.08
2019-01-17T00:58:36.857Z,18.1
2019-01-17T00:59:37.766Z,18.09
2019-01-17T01:00:36.862Z,18.09
2019-01-17T01:01:36.851Z,18.09
2019-01-17T01:02:36.695Z,18.11
2019-01-17T01:03:37.398Z,18.09
2019-01-17T01:04:36.798Z,18.09
2019-01-17T01:05:37.083Z,18.09
2019-01-17T01:06:37.215Z,18.06
2019-01-17T01:07:36.579Z,18.08
2019-01-17T01:08:36.713Z,18.08
2019-01-17T01:09:38.392Z,18.06
2019-01-17T01:10:36.574Z,18.07
2019-01-17T01:11:36.692Z,18.05
2019-01-17T01:12:36.714Z,18.06
2019-01-17T01:13:36.639Z,18.05
2019-01-17T01:14:36.755Z,18.06
2019-01-17T01:15:37.046Z,18.06
2019-01-17T01:16:36.575Z,18.05
2019-01-17T01:17:36.698Z,18.06
2019-01-17T01:18:37.434Z,18.04
2019-01-17T01:19:37.015Z,18.04
2019-01-17T01:20:37.293Z,18.05
2019-01-17T01:21:36.457Z,18.04
2019-01-17T01:22:37.162Z,18.04
2019-01-17T01:23:37.015Z,18.05
2019-01-17T01:24:36.728Z,18.04
2019-01-17T01:25:37.005Z,18.05
2019-01-17T01:26:36.726Z,18.03
2019-01-17T01:27:38.429Z,18.04
2019-01-17T01:28:37.218Z,18.03
2019-01-17T01:29:37.072Z,18.04
2019-01-17T01:30:36.433Z,18.05
2019-01-17T01:31:36.890Z,18
2019-01-17T01:32:36.771Z,18.04
2019-01-17T01:33:36.938Z,18.02
2019-01-17T01:34:36.667Z,18.04
2019-01-17T01:35:36.898Z,18
2019-01-17T01:36:36.474Z,18
2019-01-17T01:37:36.796Z,18.02
2019-01-17T01:38:36.679Z,18.02
2019-01-17T01:39:36.829Z,18.04
2019-01-17T01:40:36.690Z,17.99
2019-01-17T01:41:36.790Z,18
2019-01-17T01:42:36.752Z,17.99
2019-01-17T01:43:36.694Z,18
2019-01-17T01:44:36.666Z,17.98
2019-01-17T01:45:36.528Z,17.98
2019-01-17T01:46:36.780Z,17.98
2019-01-17T01:47:36.834Z,17.99
2019-01-17T01:48:36.831Z,17.98
2019-01-17T01:49:36.505Z,17.98
2019-01-17T01:50:36.769Z,17.98
2019-01-17T01:51:36.661Z,17.99
2019-01-17T01:52:36.725Z,17.97
2019-01-17T01:53:36.491Z,17.98
2019-01-17T01:54:36.696Z,17.97
2019-01-17T01:55:36.843Z,17.96
2019-01-17T01:56:36.759Z,17.96
2019-01-17T01:57:36.718Z,17.96
2019-01-17T01:58:36.751Z,17.95
2019-01-17T01:59:37.313Z,17.96
2019-01-17T02:00:37.368Z,17.96
2019-01-17T02:01:36.849Z,17.96
2019-01-17T02:02:36.770Z,17.97
2019-01-17T02:03:37.028Z,17.97
2019-01-17T02:04:36.677Z,17.95
2019-01-17T02:05:36.568Z,17.95
2019-01-17T02:06:37.213Z,17.96
2019-01-17T02:07:36.931Z,17.94
2019-01-17T02:08:36.962Z,17.92
2019-01-17T02:09:36.958Z,17.94
2019-01-17T02:10:37.041Z,17.92
2019-01-17T02:11:36.997Z,17.95
2019-01-17T02:12:36.732Z,17.92
2019-01-17T02:13:36.824Z,17.91
2019-01-17T02:14:37.292Z,17.92
2019-01-17T02:15:36.862Z,17.92
2019-01-17T02:16:36.861Z,17.94
2019-01-17T02:17:36.890Z,17.93
2019-01-17T02:18:36.829Z,17.91
2019-01-17T02:19:36.741Z,17.92
2019-01-17T02:20:36.690Z,17.92
2019-01-17T02:21:36.805Z,17.91
2019-01-17T02:22:36.858Z,17.91
2019-01-17T02:23:36.845Z,17.88
2019-01-17T02:24:36.527Z,17.91
2019-01-17T02:25:36.673Z,17.91
2019-01-17T02:26:37.536Z,17.89
2019-01-17T02:27:37.145Z,17.88
2019-01-17T02:28:37.036Z,17.89
2019-01-17T02:29:37.396Z,17.89
2019-01-17T02:30:36.873Z,17.88
2019-01-17T02:31:36.959Z,17.9
2019-01-17T02:32:36.818Z,17.88
2019-01-17T02:33:36.749Z,17.87
2019-01-17T02:34:36.987Z,17.88
2019-01-17T02:35:36.942Z,17.89
2019-01-17T02:36:36.511Z,17.89
2019-01-17T02:37:36.713Z,17.88
2019-01-17T02:38:37.048Z,17.85
2019-01-17T02:39:37.030Z,17.84
2019-01-17T02:40:36.820Z,17.85
2019-01-17T02:41:36.944Z,17.85
2019-01-17T02:42:36.888Z,17.87
2019-01-17T02:43:36.731Z,17.87
2019-01-17T02:44:37.178Z,17.87
2019-01-17T02:45:36.898Z,17.85
2019-01-17T02:46:37.171Z,17.83
2019-01-17T02:47:38.472Z,17.85
2019-01-17T02:48:36.608Z,17.83
2019-01-17T02:49:37.089Z,17.83
2019-01-17T02:50:36.675Z,17.84
2019-01-17T02:51:38.623Z,17.84
2019-01-17T02:52:37.832Z,17.83
2019-01-17T02:53:36.661Z,17.84
2019-01-17T02:54:36.916Z,17.83
2019-01-17T02:55:36.740Z,17.84
2019-01-17T02:56:36.662Z,17.83
2019-01-17T02:57:37.029Z,17.82
2019-01-17T02:58:36.879Z,17.83
2019-01-17T02:59:36.798Z,17.82
2019-01-17T03:00:37.152Z,17.83
2019-01-17T03:01:37.046Z,17.82
2019-01-17T03:02:37.025Z,17.81
2019-01-17T03:03:36.847Z,17.81
2019-01-17T03:04:36.917Z,17.8
2019-01-17T03:05:36.965Z,17.81
2019-01-17T03:06:36.759Z,17.81
2019-01-17T03:07:37.012Z,17.81
2019-01-17T03:08:36.572Z,17.81
2019-01-17T03:09:38.661Z,17.81
2019-01-17T03:10:36.593Z,17.8
2019-01-17T03:11:38.663Z,17.8
2019-01-17T03:12:36.695Z,17.8
2019-01-17T03:13:38.445Z,17.79
2019-01-17T03:14:36.934Z,17.8
2019-01-17T03:15:38.390Z,17.79
2019-01-17T03:16:37.102Z,17.79
2019-01-17T03:17:36.692Z,17.8
2019-01-17T03:18:36.802Z,17.79
2019-01-17T03:19:36.605Z,17.8
2019-01-17T03:20:37.201Z,17.77
2019-01-17T03:21:37.297Z,17.79
2019-01-17T03:22:36.625Z,17.79
2019-01-17T03:23:36.794Z,17.79
2019-01-17T03:24:43.430Z,17.77
2019-01-17T03:25:36.832Z,17.78
2019-01-17T03:26:36.722Z,17.77
2019-01-17T03:27:36.478Z,17.78
2019-01-17T03:28:36.733Z,17.77
2019-01-17T03:29:36.692Z,17.76
2019-01-17T03:30:36.678Z,17.76
2019-01-17T03:31:36.865Z,17.76
2019-01-17T03:32:36.506Z,17.76
2019-01-17T03:33:36.672Z,17.74
2019-01-17T03:34:36.723Z,17.75
2019-01-17T03:35:36.749Z,17.76
2019-01-17T03:36:36.489Z,17.75
2019-01-17T03:37:36.643Z,17.76
2019-01-17T03:38:36.661Z,17.75
2019-01-17T03:39:36.676Z,17.76
2019-01-17T03:40:36.610Z,17.76
2019-01-17T03:41:36.951Z,17.75
2019-01-17T03:42:37.144Z,17.75
2019-01-17T03:43:36.710Z,17.73
2019-01-17T03:44:36.459Z,17.72
2019-01-17T03:45:36.915Z,17.73
2019-01-17T03:46:37.663Z,17.75
2019-01-17T03:47:36.772Z,17.72
2019-01-17T03:48:36.489Z,17.75
2019-01-17T03:49:36.965Z,17.73
2019-01-17T03:50:36.716Z,17.72
2019-01-17T03:51:36.778Z,17.73
2019-01-17T03:52:36.660Z,17.7
2019-01-17T03:53:36.665Z,17.73
2019-01-17T03:54:36.869Z,17.72
2019-01-17T03:55:36.449Z,17.72
2019-01-17T03:56:37.682Z,17.7
2019-01-17T03:57:37.024Z,17.73
2019-01-17T03:58:36.970Z,17.72
2019-01-17T03:59:37.023Z,17.73
2019-01-17T04:00:36.775Z,17.72
2019-01-17T04:01:38.087Z,17.74
2019-01-17T04:02:36.726Z,17.7
2019-01-17T04:03:37.077Z,17.7
2019-01-17T04:04:36.859Z,17.69
2019-01-17T04:05:37.143Z,17.7
2019-01-17T04:06:37.059Z,17.68
2019-01-17T04:07:36.816Z,17.67
2019-01-17T04:08:36.730Z,17.67
2019-01-17T04:09:36.458Z,17.7
2019-01-17T04:10:36.660Z,17.68
2019-01-17T04:11:36.986Z,17.69
2019-01-17T04:12:36.861Z,17.68
2019-01-17T04:13:36.819Z,17.67
2019-01-17T04:14:36.910Z,17.68
2019-01-17T04:15:36.577Z,17.66
2019-01-17T04:16:36.938Z,17.65
2019-01-17T04:17:37.069Z,17.66
2019-01-17T04:18:36.606Z,17.67
2019-01-17T04:19:36.918Z,17.65
2019-01-17T04:20:36.758Z,17.68
2019-01-17T04:21:37.266Z,17.65
2019-01-17T04:22:37.122Z,17.67
2019-01-17T04:23:37.470Z,17.66
2019-01-17T04:24:36.892Z,17.66
2019-01-17T04:25:36.800Z,17.66
2019-01-17T04:26:36.499Z,17.64
2019-01-17T04:27:37.057Z,17.66
2019-01-17T04:28:37.648Z,17.66
2019-01-17T04:29:36.864Z,17.63
2019-01-17T04:30:36.888Z,17.65
2019-01-17T04:31:36.566Z,17.63
2019-01-17T04:32:36.737Z,17.64
2019-01-17T04:33:36.891Z,17.63
2019-01-17T04:34:36.977Z,17.63
2019-01-17T04:35:36.787Z,17.63
2019-01-17T04:36:36.934Z,17.64
2019-01-17T04:37:36.634Z,17.64
2019-01-17T04:38:36.974Z,17.65
2019-01-17T04:39:36.707Z,17.63
2019-01-17T04:40:36.825Z,17.64
2019-01-17T04:41:36.907Z,17.62
2019-01-17T04:42:37.325Z,17.63
2019-01-17T04:43:36.941Z,17.66
2019-01-17T04:44:36.642Z,17.63
2019-01-17T04:45:36.883Z,17.65
2019-01-17T04:46:37.062Z,17.65
2019-01-17T04:47:36.514Z,17.62
2019-01-17T04:48:37.045Z,17.63
2019-01-17T04:49:36.463Z,17.66
2019-01-17T04:50:36.743Z,17.64
2019-01-17T04:51:36.868Z,17.67
2019-01-17T04:52:38.699Z,17.68
2019-01-17T04:53:36.714Z,17.65
2019-01-17T04:54:38.690Z,17.68
2019-01-17T04:55:36.530Z,17.67
2019-01-17T04:56:36.848Z,17.69
2019-01-17T04:57:37.039Z,17.72
2019-01-17T04:58:36.830Z,17.69
2019-01-17T04:59:37.569Z,17.72
2019-01-17T05:00:36.721Z,17.74
2019-01-17T05:01:36.622Z,17.74
2019-01-17T05:02:36.782Z,17.74
2019-01-17T05:03:36.419Z,17.76
2019-01-17T05:04:36.590Z,17.78
2019-01-17T05:05:37.039Z,17.78
2019-01-17T05:06:36.783Z,17.79
2019-01-17T05:07:36.856Z,17.8
2019-01-17T05:08:36.655Z,17.8
2019-01-17T05:09:36.710Z,17.84
2019-01-17T05:10:36.592Z,17.83
2019-01-17T05:11:36.605Z,17.83
2019-01-17T05:12:36.783Z,17.87
2019-01-17T05:13:36.782Z,17.87
2019-01-17T05:14:36.694Z,17.89
2019-01-17T05:15:36.442Z,17.91
2019-01-17T05:16:37.079Z,17.92
2019-01-17T05:17:36.970Z,17.91
2019-01-17T05:18:37.018Z,17.92
2019-01-17T05:19:36.748Z,17.95
2019-01-17T05:20:36.763Z,17.95
2019-01-17T05:21:36.579Z,17.96
2019-01-17T05:22:36.823Z,17.98
2019-01-17T05:23:36.732Z,17.99
2019-01-17T05:24:36.945Z,18.03
2019-01-17T05:25:37.851Z,18.03
2019-01-17T05:26:36.745Z,18.03
2019-01-17T05:27:36.632Z,18.06
2019-01-17T05:28:36.666Z,18.08
2019-01-17T05:29:36.757Z,18.08
2019-01-17T05:30:37.676Z,18.1
2019-01-17T05:31:37.912Z,18.12
2019-01-17T05:32:37.005Z,18.1
2019-01-17T05:33:36.802Z,18.14
2019-01-17T05:34:40.090Z,18.15
2019-01-17T05:35:36.511Z,18.14
2019-01-17T05:36:37.168Z,18.18
2019-01-17T05:37:36.943Z,18.19
2019-01-17T05:38:36.806Z,18.2
2019-01-17T05:39:36.410Z,18.2
2019-01-17T05:40:36.691Z,18.22
2019-01-17T05:41:38.451Z,18.24
2019-01-17T05:42:38.437Z,18.23
2019-01-17T05:43:36.696Z,18.24
2019-01-17T05:44:36.781Z,18.26
2019-01-17T05:45:36.872Z,18.28
2019-01-17T05:46:36.652Z,18.28
2019-01-17T05:47:36.622Z,18.29
2019-01-17T05:48:37.084Z,18.33
2019-01-17T05:49:36.385Z,18.33
2019-01-17T05:50:36.897Z,18.33
2019-01-17T05:51:36.920Z,18.34
2019-01-17T05:52:36.853Z,18.32
2019-01-17T05:53:36.827Z,18.29
2019-01-17T05:54:36.738Z,18.24
2019-01-17T05:55:36.629Z,18.22
2019-01-17T05:56:36.670Z,18.17
2019-01-17T05:57:36.984Z,18.13
2019-01-17T05:58:36.422Z,18.1
2019-01-17T05:59:37.045Z,18.06
2019-01-17T06:00:36.901Z,18.02
2019-01-17T06:01:36.545Z,17.98
2019-01-17T06:02:36.830Z,17.93
2019-01-17T06:03:36.730Z,17.91
2019-01-17T06:04:37.034Z,17.88
2019-01-17T06:05:37.193Z,17.82
2019-01-17T06:06:36.952Z,17.78
2019-01-17T06:07:36.830Z,17.78
2019-01-17T06:08:37.009Z,17.72
2019-01-17T06:09:36.420Z,17.68
2019-01-17T06:10:36.623Z,17.63
2019-01-17T06:11:36.731Z,17.61
2019-01-17T06:12:36.664Z,17.59
2019-01-17T06:13:36.643Z,17.54
2019-01-17T06:14:36.857Z,17.53
2019-01-17T06:15:37.305Z,17.51
2019-01-17T06:16:37.251Z,17.47
2019-01-17T06:17:36.286Z,17.45
2019-01-17T06:18:36.723Z,17.43
2019-01-17T06:19:36.595Z,17.4
2019-01-17T06:20:36.702Z,17.37
2019-01-17T06:21:37.037Z,17.37
2019-01-17T06:22:36.889Z,17.35
2019-01-17T06:23:36.471Z,17.33
2019-01-17T06:24:36.755Z,17.31
2019-01-17T06:25:38.513Z,17.29
2019-01-17T06:26:37.035Z,17.28
2019-01-17T06:27:38.328Z,17.25
2019-01-17T06:28:36.522Z,17.28
2019-01-17T06:29:36.377Z,17.26
2019-01-17T06:30:37.477Z,17.3
2019-01-17T06:31:37.292Z,17.34
2019-01-17T06:32:36.770Z,17.34
2019-01-17T06:33:37.827Z,17.38
2019-01-17T06:34:36.703Z,17.4
2019-01-17T06:35:36.657Z,17.43
2019-01-17T06:36:37.090Z,17.46
2019-01-17T06:37:36.754Z,17.5
2019-01-17T06:38:36.713Z,17.51
2019-01-17T06:39:36.762Z,17.55
2019-01-17T06:40:37.007Z,17.56
2019-01-17T06:41:36.828Z,17.58
2019-01-17T06:42:36.614Z,17.63
2019-01-17T06:43:37.362Z,17.63
2019-01-17T06:44:36.489Z,17.67
2019-01-17T06:45:36.626Z,17.72
2019-01-17T06:46:36.774Z,17.74
2019-01-17T06:47:36.748Z,17.75
2019-01-17T06:48:37.082Z,17.79
2019-01-17T06:49:36.443Z,17.79
2019-01-17T06:50:36.705Z,17.84
2019-01-17T06:51:37.366Z,17.84
2019-01-17T06:52:36.850Z,17.89
2019-01-17T06:53:37.192Z,17.91
2019-01-17T06:54:36.841Z,17.92
2019-01-17T06:55:36.660Z,17.94
2019-01-17T06:56:36.944Z,17.99
2019-01-17T06:57:36.377Z,17.97
2019-01-17T06:58:36.461Z,18.02
2019-01-17T06:59:36.704Z,18.02
2019-01-17T07:00:36.651Z,18.04
2019-01-17T07:01:36.464Z,18.06
2019-01-17T07:02:36.865Z,18.09
2019-01-17T07:03:36.464Z,18.1
2019-01-17T07:04:36.842Z,18.12
2019-01-17T07:05:36.797Z,18.12
2019-01-17T07:06:36.781Z,18.14
2019-01-17T07:07:36.866Z,18.17
2019-01-17T07:08:36.685Z,18.19
2019-01-17T07:09:36.576Z,18.18
2019-01-17T07:10:36.844Z,18.21
2019-01-17T07:11:36.683Z,18.22
2019-01-17T07:12:38.354Z,18.26
2019-01-17T07:13:36.585Z,18.26
2019-01-17T07:14:36.357Z,18.26
2019-01-17T07:15:36.792Z,18.27
2019-01-17T07:16:38.435Z,18.28
2019-01-17T07:17:38.313Z,18.29
2019-01-17T07:18:36.909Z,18.32
2019-01-17T07:19:38.490Z,18.32
2019-01-17T07:20:36.473Z,18.34
2019-01-17T07:21:38.066Z,18.33
2019-01-17T07:22:37.256Z,18.33
2019-01-17T07:23:36.516Z,18.34
2019-01-17T07:24:37.450Z,18.37
2019-01-17T07:25:41.486Z,18.37
2019-01-17T07:26:36.489Z,18.38
2019-01-17T07:27:37.382Z,18.38
2019-01-17T07:28:36.868Z,18.4
2019-01-17T07:29:36.402Z,18.4
2019-01-17T07:30:36.810Z,18.39
2019-01-17T07:31:36.717Z,18.41
2019-01-17T07:32:36.833Z,18.41
2019-01-17T07:33:36.921Z,18.42
2019-01-17T07:34:36.818Z,18.44
2019-01-17T07:35:37.230Z,18.44
2019-01-17T07:36:36.959Z,18.47
2019-01-17T07:37:36.352Z,18.49
2019-01-17T07:38:36.737Z,18.47
2019-01-17T07:39:36.900Z,18.49
2019-01-17T07:40:36.522Z,18.49
2019-01-17T07:41:36.778Z,18.51
2019-01-17T07:42:36.676Z,18.5
2019-01-17T07:43:36.684Z,18.49
2019-01-17T07:44:37.187Z,18.53
2019-01-17T07:45:37.171Z,18.54
2019-01-17T07:46:36.740Z,18.54
2019-01-17T07:47:36.595Z,18.54
2019-01-17T07:48:36.874Z,18.56
2019-01-17T07:49:36.571Z,18.57
2019-01-17T07:50:36.865Z,18.57
2019-01-17T07:51:36.474Z,18.58
2019-01-17T07:52:36.786Z,18.61
2019-01-17T07:53:37.126Z,18.58
2019-01-17T07:54:36.790Z,18.61
2019-01-17T07:55:36.572Z,18.59
2019-01-17T07:56:36.911Z,18.62
2019-01-17T07:57:36.839Z,18.63
2019-01-17T07:58:36.590Z,18.63
2019-01-17T07:59:36.921Z,18.64
2019-01-17T08:00:36.375Z,18.64
2019-01-17T08:01:36.692Z,18.66
2019-01-17T08:02:38.494Z,18.65
2019-01-17T08:03:36.454Z,18.66
2019-01-17T08:04:36.883Z,18.69
2019-01-17T08:05:36.846Z,18.69
2019-01-17T08:06:37.048Z,18.69
2019-01-17T08:07:36.493Z,18.7
2019-01-17T08:08:36.489Z,18.72
2019-01-17T08:09:36.451Z,18.7
2019-01-17T08:10:36.618Z,18.77
2019-01-17T08:11:36.345Z,18.72
2019-01-17T08:12:36.922Z,18.72
2019-01-17T08:13:36.763Z,18.73
2019-01-17T08:14:36.529Z,18.77
2019-01-17T08:15:36.969Z,18.77
2019-01-17T08:16:36.773Z,18.77
2019-01-17T08:17:36.752Z,18.77
2019-01-17T08:18:36.853Z,18.8
2019-01-17T08:19:36.963Z,18.81
2019-01-17T08:20:36.673Z,18.8
2019-01-17T08:21:36.559Z,18.82
2019-01-17T08:22:36.961Z,18.82
2019-01-17T08:23:38.350Z,18.83
2019-01-17T08:24:37.002Z,18.84
2019-01-17T08:25:36.719Z,18.83
2019-01-17T08:26:36.699Z,18.84
2019-01-17T08:27:36.722Z,18.85
2019-01-17T08:28:36.490Z,18.86
2019-01-17T08:29:36.844Z,18.86
2019-01-17T08:30:36.848Z,18.88
2019-01-17T08:31:36.462Z,18.87
2019-01-17T08:32:36.520Z,18.88
2019-01-17T08:33:36.824Z,18.89
2019-01-17T08:34:36.450Z,18.89
2019-01-17T08:35:37.177Z,18.91
2019-01-17T08:36:36.851Z,18.88
2019-01-17T08:37:37.495Z,18.89
2019-01-17T08:38:36.830Z,18.89
2019-01-17T08:39:36.786Z,18.91
2019-01-17T08:40:36.408Z,18.92
2019-01-17T08:41:36.789Z,18.91
2019-01-17T08:42:37.243Z,18.92
2019-01-17T08:43:36.986Z,18.93
2019-01-17T08:44:37.348Z,18.93
2019-01-17T08:45:37.390Z,18.93
2019-01-17T08:46:37.190Z,18.93
2019-01-17T08:47:37.099Z,18.94
2019-01-17T08:48:36.464Z,18.94
2019-01-17T08:49:36.818Z,18.94
2019-01-17T08:50:36.928Z,18.94
2019-01-17T08:51:36.354Z,18.95
2019-01-17T08:52:37.060Z,18.96
2019-01-17T08:53:36.940Z,18.96
2019-01-17T08:54:36.769Z,18.96
2019-01-17T08:55:37.117Z,18.98
2019-01-17T08:56:36.825Z,18.95
2019-01-17T08:57:36.707Z,18.98
2019-01-17T08:58:38.432Z,18.97
2019-01-17T08:59:36.835Z,18.99
2019-01-17T09:00:36.383Z,18.98
2019-01-17T09:01:37.097Z,18.98
2019-01-17T09:02:37.067Z,18.99
2019-01-17T09:03:36.508Z,18.99
2019-01-17T09:04:36.484Z,19.01
2019-01-17T09:05:36.697Z,19.01
2019-01-17T09:06:36.872Z,19.01
2019-01-17T09:07:36.468Z,19.01
2019-01-17T09:08:36.423Z,19.01
2019-01-17T09:09:36.838Z,19.01
2019-01-17T09:10:36.807Z,19.01
2019-01-17T09:11:36.594Z,19.02
2019-01-17T09:12:36.556Z,19.05
2019-01-17T09:13:36.941Z,19.06
2019-01-17T09:14:37.032Z,19.07
2019-01-17T09:15:36.431Z,19.08
2019-01-17T09:16:36.526Z,19.08
2019-01-17T09:17:36.801Z,19.07
2019-01-17T09:18:36.558Z,19.07
2019-01-17T09:19:36.628Z,19.09
2019-01-17T09:20:36.547Z,19.1
2019-01-17T09:21:36.465Z,19.13
2019-01-17T09:22:37.193Z,19.12
2019-01-17T09:23:36.541Z,19.14
2019-01-17T09:24:36.553Z,19.14
2019-01-17T09:25:36.891Z,19.15
2019-01-17T09:26:36.847Z,19.17
2019-01-17T09:27:36.885Z,19.17
2019-01-17T09:28:38.561Z,19.18
2019-01-17T09:29:36.837Z,19.2
2019-01-17T09:30:36.794Z,19.23
2019-01-17T09:31:36.421Z,19.23
2019-01-17T09:32:38.386Z,19.25
2019-01-17T09:33:36.745Z,19.26
2019-01-17T09:34:36.803Z,19.29
2019-01-17T09:35:36.844Z,19.29
2019-01-17T09:36:37.104Z,19.32
2019-01-17T09:37:36.838Z,19.3
2019-01-17T09:38:36.884Z,19.33
2019-01-17T09:39:37.837Z,19.35
2019-01-17T09:40:36.787Z,19.36
2019-01-17T09:41:36.575Z,19.36
2019-01-17T09:42:37.551Z,19.38
2019-01-17T09:43:36.903Z,19.37
2019-01-17T09:44:37.120Z,19.39
2019-01-17T09:45:37.721Z,19.4
2019-01-17T09:46:36.384Z,19.38
2019-01-17T09:47:37.120Z,19.39
2019-01-17T09:48:36.329Z,19.41
2019-01-17T09:49:36.829Z,19.41
2019-01-17T09:50:37.036Z,19.42
2019-01-17T09:51:36.900Z,19.42
2019-01-17T09:52:37.011Z,19.41
2019-01-17T09:53:36.803Z,19.42
2019-01-17T09:54:36.486Z,19.44
2019-01-17T09:55:36.896Z,19.45
2019-01-17T09:56:36.325Z,19.43
2019-01-17T09:57:36.798Z,19.43
2019-01-17T09:58:37.008Z,19.45
2019-01-17T09:59:36.376Z,19.47
2019-01-17T10:00:36.932Z,19.47
2019-01-17T10:01:36.628Z,19.48
2019-01-17T10:02:36.764Z,19.51
2019-01-17T10:03:36.772Z,19.48
2019-01-17T10:04:36.712Z,19.46
2019-01-17T10:05:36.547Z,19.5
2019-01-17T10:06:38.471Z,19.48
2019-01-17T10:07:36.355Z,19.5
2019-01-17T10:08:36.716Z,19.5
2019-01-17T10:09:36.778Z,19.51
2019-01-17T10:10:36.740Z,19.51
2019-01-17T10:11:36.833Z,19.51
2019-01-17T10:12:36.415Z,19.51
2019-01-17T10:13:36.440Z,19.53
2019-01-17T10:14:36.741Z,19.55
2019-01-17T10:15:36.466Z,19.53
2019-01-17T10:16:37.126Z,19.54
2019-01-17T10:17:36.785Z,19.54
2019-01-17T10:18:36.726Z,19.57
2019-01-17T10:19:36.681Z,19.56
2019-01-17T10:20:36.749Z,19.57
2019-01-17T10:21:36.489Z,19.58
2019-01-17T10:22:36.574Z,19.6
2019-01-17T10:23:36.610Z,19.6
2019-01-17T10:24:36.785Z,19.58
2019-01-17T10:25:36.873Z,19.59
2019-01-17T10:26:36.778Z,19.59
2019-01-17T10:27:36.826Z,19.58
2019-01-17T10:28:36.991Z,19.58
2019-01-17T10:29:36.807Z,19.57
2019-01-17T10:30:36.896Z,19.57
2019-01-17T10:31:37.034Z,19.57
2019-01-17T10:32:36.690Z,19.56
2019-01-17T10:33:38.403Z,19.55
2019-01-17T10:34:36.901Z,19.57
2019-01-17T10:35:36.508Z,19.55
2019-01-17T10:36:36.454Z,19.56
2019-01-17T10:37:36.558Z,19.55
2019-01-17T10:38:37.011Z,19.56
2019-01-17T10:39:36.878Z,19.57
2019-01-17T10:40:36.508Z,19.56
2019-01-17T10:41:36.880Z,19.57
2019-01-17T10:42:37.087Z,19.56
2019-01-17T10:43:37.843Z,19.58
2019-01-17T10:44:38.366Z,19.56
2019-01-17T10:45:37.410Z,19.57
2019-01-17T10:46:36.474Z,19.57
2019-01-17T10:47:37.019Z,19.57
2019-01-17T10:48:36.829Z,19.58
2019-01-17T10:49:36.529Z,19.58
2019-01-17T10:50:36.525Z,19.59
2019-01-17T10:51:36.765Z,19.6
2019-01-17T10:52:36.534Z,19.6
2019-01-17T10:53:36.927Z,19.59
2019-01-17T10:54:36.746Z,19.59
2019-01-17T10:55:36.673Z,19.58
2019-01-17T10:56:41.863Z,19.59
2019-01-17T10:57:37.312Z,19.59
2019-01-17T10:58:36.418Z,19.59
2019-01-17T10:59:37.002Z,19.61
2019-01-17T11:00:36.792Z,19.6
2019-01-17T11:01:36.548Z,19.59
2019-01-17T11:02:36.283Z,19.6
2019-01-17T11:03:36.648Z,19.6
2019-01-17T11:04:36.833Z,19.59
2019-01-17T11:05:36.687Z,19.59
2019-01-17T11:06:36.544Z,19.58
2019-01-17T11:07:36.586Z,19.62
2019-01-17T11:08:36.979Z,19.59
2019-01-17T11:09:36.496Z,19.58
2019-01-17T11:10:36.379Z,19.59
2019-01-17T11:11:36.749Z,19.58
2019-01-17T11:12:36.787Z,19.58
2019-01-17T11:13:38.344Z,19.61
2019-01-17T11:14:36.666Z,19.59
2019-01-17T11:15:36.478Z,19.59
2019-01-17T11:16:36.496Z,19.58
2019-01-17T11:17:36.888Z,19.6
2019-01-17T11:18:36.666Z,19.6
2019-01-17T11:19:36.345Z,19.6
2019-01-17T11:20:36.838Z,19.59
2019-01-17T11:21:37.194Z,19.62
2019-01-17T11:22:36.959Z,19.59
2019-01-17T11:23:36.784Z,19.6
2019-01-17T11:24:36.546Z,19.62
2019-01-17T11:25:36.427Z,19.61
2019-01-17T11:26:36.639Z,19.6
2019-01-17T11:27:36.434Z,19.62
2019-01-17T11:28:36.769Z,19.61
2019-01-17T11:29:37.420Z,19.61
2019-01-17T11:30:36.721Z,19.62
2019-01-17T11:31:36.648Z,19.6
2019-01-17T11:32:36.270Z,19.62
2019-01-17T11:33:36.652Z,19.62
2019-01-17T11:34:36.744Z,19.62
2019-01-17T11:35:36.494Z,19.61
2019-01-17T11:36:36.335Z,19.63
2019-01-17T11:37:37.087Z,19.63
2019-01-17T11:38:36.519Z,19.62
2019-01-17T11:39:36.869Z,19.63
2019-01-17T11:40:36.898Z,19.63
2019-01-17T11:41:36.750Z,19.65
2019-01-17T11:42:36.954Z,19.62
2019-01-17T11:43:36.799Z,19.67
2019-01-17T11:44:36.297Z,19.67
2019-01-17T11:45:36.578Z,19.67
2019-01-17T11:46:36.845Z,19.67
2019-01-17T11:47:36.353Z,19.7
2019-01-17T11:48:37.116Z,19.7
2019-01-17T11:49:36.367Z,19.71
2019-01-17T11:50:36.862Z,19.7
2019-01-17T11:51:36.458Z,19.7
2019-01-17T11:52:36.322Z,19.71
2019-01-17T11:53:36.450Z,19.75
2019-01-17T11:54:36.902Z,19.74
2019-01-17T11:55:36.466Z,19.77
2019-01-17T11:56:41.288Z,19.76
2019-01-17T11:57:36.787Z,19.79
2019-01-17T11:58:36.317Z,19.8
2019-01-17T11:59:36.489Z,19.79
2019-01-17T12:00:37.086Z,19.83
2019-01-17T12:01:36.271Z,19.81
2019-01-17T12:02:39.900Z,19.82
2019-01-17T12:03:36.876Z,19.84
2019-01-17T12:04:36.342Z,19.84
2019-01-17T12:05:36.925Z,19.85
2019-01-17T12:06:36.786Z,19.88
2019-01-17T12:07:36.313Z,19.86
2019-01-17T12:08:36.777Z,19.88
2019-01-17T12:09:38.365Z,19.88
2019-01-17T12:10:36.465Z,19.89
2019-01-17T12:11:36.492Z,19.87
2019-01-17T12:12:36.522Z,19.88
2019-01-17T12:13:36.699Z,19.88
2019-01-17T12:14:36.854Z,19.88
2019-01-17T12:15:36.381Z,19.89
2019-01-17T12:16:36.816Z,19.87
2019-01-17T12:17:36.812Z,19.89
2019-01-17T12:18:36.870Z,19.92
2019-01-17T12:19:36.530Z,19.94
2019-01-17T12:20:37.151Z,19.94
2019-01-17T12:21:37.115Z,19.96
2019-01-17T12:22:36.909Z,19.94
2019-01-17T12:23:36.311Z,19.94
2019-01-17T12:24:37.113Z,19.92
2019-01-17T12:25:36.695Z,19.94
2019-01-17T12:26:36.388Z,19.95
2019-01-17T12:27:42.934Z,19.94
2019-01-17T12:28:36.638Z,19.94
2019-01-17T12:29:36.503Z,19.94
2019-01-17T12:30:36.663Z,19.94
2019-01-17T12:31:36.567Z,19.95
2019-01-17T12:32:36.861Z,19.94
2019-01-17T12:33:36.466Z,19.92
2019-01-17T12:34:36.614Z,19.92
2019-01-17T12:35:36.668Z,19.92
2019-01-17T12:36:36.444Z,19.94
2019-01-17T12:37:36.470Z,19.92
2019-01-17T12:38:36.320Z,19.94
2019-01-17T12:39:36.360Z,19.95
2019-01-17T12:40:37.129Z,19.95
2019-01-17T12:41:36.433Z,19.96
2019-01-17T12:42:36.666Z,19.96
2019-01-17T12:43:36.648Z,19.98
2019-01-17T12:44:36.820Z,19.98
2019-01-17T12:45:36.976Z,19.98
2019-01-17T12:46:36.722Z,19.97
2019-01-17T12:47:36.453Z,19.99
2019-01-17T12:48:36.748Z,19.98
2019-01-17T12:49:36.411Z,19.99
2019-01-17T12:50:36.589Z,19.99
2019-01-17T12:51:36.784Z,19.99
2019-01-17T12:52:37.107Z,20
2019-01-17T12:53:36.572Z,19.99
2019-01-17T12:54:36.194Z,19.98
2019-01-17T12:55:37.351Z,19.99